Marcellus, MI

8:26 AM EST on February 27, 2015 (GMT -0500)
Farming/Agriculture | Change Station
CLOSE
Current Station
Personal Weather Station
Location: Decatur, MI
Elevation: 864 ft
Nearby Weather Stations

Elev 864 ft 42.05 °N, 85.91 °W | Updated 49 seconds ago

Mostly Cloudy
Mostly Cloudy
-6.5 °F
Feels Like -7 °F
N
0.0
Wind Variable Wind from West
Gusts 0.0 mph

Today
High -- | Low -- °F
--% Chance of Precip.
Yesterday
High -- | Low -- °F
Precip. -- in
7:21 AM 6:30 PM
Waxing Gibbous, 68% visible
Pressure 30.51 in
Visibility 10.0 miles
Clouds Mostly Cloudy 4800 ft
Windchill -7 °F
Dew Point -24 °F
Humidity 42%
Rainfall 0.00 in
Snow Depth Not available.
UV 0 out of 12
Pollen .30 out of 12
Air Quality Not available.
Flu Activity Not available.
METAR KHAI 271314Z AUTO 00000KT 10SM BKN048 M23/M26 A3051 RMK AO2 T12281257

More Conditions Fewer Conditions

Pressure 30.51 in
Visibility 10.0 miles
Clouds Mostly Cloudy 4800 ft
Windchill -7 °F
Dew Point -24 °F
Humidity 42%
Rainfall 0.00 in
Snow Depth Not available.
UV 0 out of 12
Pollen .30 out of 12
Air Quality Not available.
Flu Activity Not available.
METAR KHAI 271314Z AUTO 00000KT 10SM BKN048 M23/M26 A3051 RMK AO2 T12281257

More Conditions Fewer Conditions

10-Day Weather Forecast

Almanac

Astronomy

Feb. 27, 2015 Rise Set
Actual Time
Civil Twilight
Nautical Twilight
Astronomical Twilight
Moon
Length of Visible Light
Length of Day
Tomorrow will be .
, % of the Moon is Illuminated

Today's Extremes

State Highs State Lows

Community

WunderPhotos

Upload Photos

1,800,673 photos uploaded!

WunderBlogs® & News

Nearby

Air Quality

  Air Quality AQ Index Pollutant
Not available.

Snow Depth

Station Depth Elevation

Earthquake Activity

City Distance Mag. Time & Date
Minimum magnitude displayed is 2.5.

Coastal Water Temperatures

Place Temperature

Nearby Weather Stations